sensor_id;sensor_type;location;lat;lon;timestamp;P1;durP1;ratioP1;P2;durP2;ratioP2
51438;SDS011;38816;51.142;-0.974;2023-01-26T00:01:23;20.30;;;6.20;;
51438;SDS011;38816;51.142;-0.974;2023-01-26T00:03:53;21.42;;;6.90;;
51438;SDS011;38816;51.142;-0.974;2023-01-26T00:06:20;16.38;;;5.97;;
51438;SDS011;38816;51.142;-0.974;2023-01-26T00:08:50;24.27;;;6.03;;
51438;SDS011;38816;51.142;-0.974;2023-01-26T00:11:21;22.35;;;5.78;;
51438;SDS011;38816;51.142;-0.974;2023-01-26T00:13:51;29.40;;;6.10;;
51438;SDS011;38816;51.142;-0.974;2023-01-26T00:16:17;23.60;;;5.47;;
51438;SDS011;38816;51.142;-0.974;2023-01-26T00:18:43;23.25;;;5.47;;
51438;SDS011;38816;51.142;-0.974;2023-01-26T00:21:13;23.25;;;6.00;;
51438;SDS011;38816;51.142;-0.974;2023-01-26T00:23:40;19.38;;;5.80;;
51438;SDS011;38816;51.142;-0.974;2023-01-26T00:26:07;17.40;;;5.30;;
51438;SDS011;38816;51.142;-0.974;2023-01-26T00:28:34;17.85;;;4.65;;
51438;SDS011;38816;51.142;-0.974;2023-01-26T00:31:07;23.42;;;5.90;;
51438;SDS011;38816;51.142;-0.974;2023-01-26T00:33:35;22.92;;;5.22;;
51438;SDS011;38816;51.142;-0.974;2023-01-26T00:36:01;24.63;;;5.88;;
51438;SDS011;38816;51.142;-0.974;2023-01-26T00:38:26;19.23;;;4.85;;
51438;SDS011;38816;51.142;-0.974;2023-01-26T00:40:52;18.73;;;5.47;;
51438;SDS011;38816;51.142;-0.974;2023-01-26T00:43:17;12.93;;;4.85;;
51438;SDS011;38816;51.142;-0.974;2023-01-26T00:45:43;14.27;;;5.30;;
51438;SDS011;38816;51.142;-0.974;2023-01-26T00:48:08;20.48;;;6.70;;
51438;SDS011;38816;51.142;-0.974;2023-01-26T00:50:33;21.40;;;6.18;;
51438;SDS011;38816;51.142;-0.974;2023-01-26T00:52:59;20.27;;;6.45;;
51438;SDS011;38816;51.142;-0.974;2023-01-26T00:55:24;20.23;;;6.72;;
51438;SDS011;38816;51.142;-0.974;2023-01-26T00:57:56;14.75;;;7.05;;
51438;SDS011;38816;51.142;-0.974;2023-01-26T01:00:29;28.60;;;6.70;;
51438;SDS011;38816;51.142;-0.974;2023-01-26T01:02:55;16.48;;;6.45;;
51438;SDS011;38816;51.142;-0.974;2023-01-26T01:05:22;20.98;;;6.47;;
51438;SDS011;38816;51.142;-0.974;2023-01-26T01:07:48;23.10;;;6.63;;
51438;SDS011;38816;51.142;-0.974;2023-01-26T01:10:14;25.05;;;6.90;;
51438;SDS011;38816;51.142;-0.974;2023-01-26T01:12:39;19.00;;;7.22;;
51438;SDS011;38816;51.142;-0.974;2023-01-26T01:15:05;28.58;;;6.97;;
51438;SDS011;38816;51.142;-0.974;2023-01-26T01:17:32;28.02;;;7.03;;
51438;SDS011;38816;51.142;-0.974;2023-01-26T01:19:57;28.60;;;7.28;;
51438;SDS011;38816;51.142;-0.974;2023-01-26T01:22:23;21.27;;;6.53;;
51438;SDS011;38816;51.142;-0.974;2023-01-26T01:24:48;25.92;;;7.65;;
51438;SDS011;38816;51.142;-0.974;2023-01-26T01:27:14;20.75;;;6.55;;
51438;SDS011;38816;51.142;-0.974;2023-01-26T01:29:39;23.02;;;6.93;;
51438;SDS011;38816;51.142;-0.974;2023-01-26T01:32:04;17.17;;;7.07;;
51438;SDS011;38816;51.142;-0.974;2023-01-26T01:34:30;26.10;;;6.93;;
51438;SDS011;38816;51.142;-0.974;2023-01-26T01:36:55;19.00;;;6.85;;
51438;SDS011;38816;51.142;-0.974;2023-01-26T01:39:21;26.75;;;7.30;;
51438;SDS011;38816;51.142;-0.974;2023-01-26T01:41:46;19.52;;;6.50;;
51438;SDS011;38816;51.142;-0.974;2023-01-26T01:46:46;26.30;;;6.35;;
51438;SDS011;38816;51.142;-0.974;2023-01-26T01:52:15;28.30;;;6.35;;
51438;SDS011;38816;51.142;-0.974;2023-01-26T01:54:45;28.50;;;5.20;;
51438;SDS011;38816;51.142;-0.974;2023-01-26T01:57:20;20.95;;;5.95;;
51438;SDS011;38816;51.142;-0.974;2023-01-26T01:59:56;17.52;;;5.47;;
51438;SDS011;38816;51.142;-0.974;2023-01-26T02:02:30;24.73;;;5.63;;
51438;SDS011;38816;51.142;-0.974;2023-01-26T02:04:56;18.52;;;5.68;;
51438;SDS011;38816;51.142;-0.974;2023-01-26T02:07:27;26.75;;;5.60;;
51438;SDS011;38816;51.142;-0.974;2023-01-26T02:09:56;18.77;;;5.43;;
51438;SDS011;38816;51.142;-0.974;2023-01-26T02:12:41;22.70;;;5.95;;
51438;SDS011;38816;51.142;-0.974;2023-01-26T02:15:08;18.85;;;5.13;;
51438;SDS011;38816;51.142;-0.974;2023-01-26T02:17:34;21.08;;;5.20;;
51438;SDS011;38816;51.142;-0.974;2023-01-26T02:20:06;18.13;;;5.30;;
51438;SDS011;38816;51.142;-0.974;2023-01-26T02:28:18;19.73;;;4.82;;
51438;SDS011;38816;51.142;-0.974;2023-01-26T02:30:46;15.23;;;4.50;;
51438;SDS011;38816;51.142;-0.974;2023-01-26T02:33:19;12.68;;;4.45;;
51438;SDS011;38816;51.142;-0.974;2023-01-26T02:35:46;16.13;;;4.35;;
51438;SDS011;38816;51.142;-0.974;2023-01-26T02:38:12;15.43;;;5.07;;
51438;SDS011;38816;51.142;-0.974;2023-01-26T02:43:20;16.48;;;4.57;;
51438;SDS011;38816;51.142;-0.974;2023-01-26T02:45:47;20.52;;;4.88;;
51438;SDS011;38816;51.142;-0.974;2023-01-26T02:48:13;16.17;;;4.57;;
51438;SDS011;38816;51.142;-0.974;2023-01-26T02:50:58;15.05;;;4.78;;
51438;SDS011;38816;51.142;-0.974;2023-01-26T02:53:24;17.65;;;4.82;;
51438;SDS011;38816;51.142;-0.974;2023-01-26T02:55:49;17.80;;;4.35;;
51438;SDS011;38816;51.142;-0.974;2023-01-26T02:58:16;12.77;;;4.90;;
51438;SDS011;38816;51.142;-0.974;2023-01-26T03:00:41;14.88;;;4.60;;
51438;SDS011;38816;51.142;-0.974;2023-01-26T03:03:14;17.80;;;4.50;;
51438;SDS011;38816;51.142;-0.974;2023-01-26T03:05:42;20.95;;;4.30;;
51438;SDS011;38816;51.142;-0.974;2023-01-26T03:08:08;23.70;;;3.80;;
51438;SDS011;38816;51.142;-0.974;2023-01-26T03:10:33;19.27;;;3.83;;
51438;SDS011;38816;51.142;-0.974;2023-01-26T03:12:59;12.25;;;3.45;;
51438;SDS011;38816;51.142;-0.974;2023-01-26T03:15:25;14.77;;;4.30;;
51438;SDS011;38816;51.142;-0.974;2023-01-26T03:18:11;12.27;;;4.10;;
51438;SDS011;38816;51.142;-0.974;2023-01-26T03:20:59;13.52;;;3.17;;
51438;SDS011;38816;51.142;-0.974;2023-01-26T03:23:44;13.80;;;3.28;;
51438;SDS011;38816;51.142;-0.974;2023-01-26T03:26:28;12.07;;;3.80;;
51438;SDS011;38816;51.142;-0.974;2023-01-26T03:29:12;11.48;;;3.15;;
51438;SDS011;38816;51.142;-0.974;2023-01-26T03:31:38;16.63;;;3.60;;
51438;SDS011;38816;51.142;-0.974;2023-01-26T03:34:03;18.02;;;3.20;;
51438;SDS011;38816;51.142;-0.974;2023-01-26T03:36:28;14.25;;;3.30;;
51438;SDS011;38816;51.142;-0.974;2023-01-26T03:38:54;14.82;;;3.00;;
51438;SDS011;38816;51.142;-0.974;2023-01-26T03:41:19;17.98;;;3.20;;
51438;SDS011;38816;51.142;-0.974;2023-01-26T03:44:03;16.00;;;3.63;;
51438;SDS011;38816;51.142;-0.974;2023-01-26T03:46:47;10.80;;;3.08;;
51438;SDS011;38816;51.142;-0.974;2023-01-26T03:49:31;13.70;;;3.10;;
51438;SDS011;38816;51.142;-0.974;2023-01-26T03:52:15;14.77;;;3.03;;
51438;SDS011;38816;51.142;-0.974;2023-01-26T03:54:59;22.52;;;3.20;;
51438;SDS011;38816;51.142;-0.974;2023-01-26T03:57:43;17.63;;;4.07;;
51438;SDS011;38816;51.142;-0.974;2023-01-26T04:00:08;16.20;;;3.10;;
51438;SDS011;38816;51.142;-0.974;2023-01-26T04:02:34;15.95;;;3.55;;
51438;SDS011;38816;51.142;-0.974;2023-01-26T04:05:18;13.27;;;2.83;;
51438;SDS011;38816;51.142;-0.974;2023-01-26T04:08:03;16.92;;;3.38;;
51438;SDS011;38816;51.142;-0.974;2023-01-26T04:10:51;20.48;;;3.40;;
51438;SDS011;38816;51.142;-0.974;2023-01-26T04:13:18;15.27;;;3.10;;
51438;SDS011;38816;51.142;-0.974;2023-01-26T04:16:03;18.10;;;2.70;;
51438;SDS011;38816;51.142;-0.974;2023-01-26T04:18:47;19.70;;;2.78;;
51438;SDS011;38816;51.142;-0.974;2023-01-26T04:21:31;13.82;;;2.63;;
51438;SDS011;38816;51.142;-0.974;2023-01-26T04:23:58;15.60;;;2.45;;
51438;SDS011;38816;51.142;-0.974;2023-01-26T04:26:25;16.50;;;3.03;;
51438;SDS011;38816;51.142;-0.974;2023-01-26T04:28:58;15.07;;;2.70;;
51438;SDS011;38816;51.142;-0.974;2023-01-26T04:31:25;14.82;;;2.90;;
51438;SDS011;38816;51.142;-0.974;2023-01-26T04:33:50;17.38;;;2.88;;
51438;SDS011;38816;51.142;-0.974;2023-01-26T04:36:16;18.65;;;2.75;;
51438;SDS011;38816;51.142;-0.974;2023-01-26T04:38:41;15.35;;;2.78;;
51438;SDS011;38816;51.142;-0.974;2023-01-26T04:41:06;15.55;;;2.58;;
51438;SDS011;38816;51.142;-0.974;2023-01-26T04:43:32;14.50;;;2.70;;
51438;SDS011;38816;51.142;-0.974;2023-01-26T04:46:01;18.48;;;2.75;;
51438;SDS011;38816;51.142;-0.974;2023-01-26T04:48:28;11.13;;;2.50;;
51438;SDS011;38816;51.142;-0.974;2023-01-26T04:50:55;19.60;;;2.92;;
51438;SDS011;38816;51.142;-0.974;2023-01-26T04:53:22;19.55;;;3.00;;
51438;SDS011;38816;51.142;-0.974;2023-01-26T04:55:47;8.65;;;2.50;;
51438;SDS011;38816;51.142;-0.974;2023-01-26T04:58:13;14.90;;;2.85;;
51438;SDS011;38816;51.142;-0.974;2023-01-26T05:04:00;19.88;;;2.92;;
51438;SDS011;38816;51.142;-0.974;2023-01-26T05:06:26;16.58;;;2.80;;
51438;SDS011;38816;51.142;-0.974;2023-01-26T05:08:52;10.73;;;2.38;;
51438;SDS011;38816;51.142;-0.974;2023-01-26T05:11:17;14.32;;;3.03;;
51438;SDS011;38816;51.142;-0.974;2023-01-26T05:13:42;20.70;;;2.85;;
51438;SDS011;38816;51.142;-0.974;2023-01-26T05:16:08;20.48;;;3.25;;
51438;SDS011;38816;51.142;-0.974;2023-01-26T05:18:37;17.98;;;3.10;;
51438;SDS011;38816;51.142;-0.974;2023-01-26T05:21:03;12.10;;;2.65;;
51438;SDS011;38816;51.142;-0.974;2023-01-26T05:23:28;16.92;;;2.60;;
51438;SDS011;38816;51.142;-0.974;2023-01-26T05:25:54;20.20;;;3.30;;
51438;SDS011;38816;51.142;-0.974;2023-01-26T05:28:19;15.98;;;3.83;;
51438;SDS011;38816;51.142;-0.974;2023-01-26T05:30:45;18.23;;;3.28;;
51438;SDS011;38816;51.142;-0.974;2023-01-26T05:33:14;18.25;;;3.03;;
51438;SDS011;38816;51.142;-0.974;2023-01-26T05:35:40;21.30;;;3.50;;
51438;SDS011;38816;51.142;-0.974;2023-01-26T05:38:06;23.55;;;3.53;;
51438;SDS011;38816;51.142;-0.974;2023-01-26T05:40:31;14.48;;;3.45;;
51438;SDS011;38816;51.142;-0.974;2023-01-26T05:42:57;20.17;;;3.88;;
51438;SDS011;38816;51.142;-0.974;2023-01-26T05:45:22;16.95;;;3.38;;
51438;SDS011;38816;51.142;-0.974;2023-01-26T05:47:48;13.98;;;3.38;;
51438;SDS011;38816;51.142;-0.974;2023-01-26T05:50:13;25.40;;;4.20;;
51438;SDS011;38816;51.142;-0.974;2023-01-26T05:52:40;26.25;;;3.65;;
51438;SDS011;38816;51.142;-0.974;2023-01-26T05:55:06;18.58;;;3.95;;
51438;SDS011;38816;51.142;-0.974;2023-01-26T05:57:32;16.73;;;3.28;;
51438;SDS011;38816;51.142;-0.974;2023-01-26T05:59:57;19.58;;;3.83;;
51438;SDS011;38816;51.142;-0.974;2023-01-26T06:02:23;19.17;;;3.95;;
51438;SDS011;38816;51.142;-0.974;2023-01-26T06:04:51;20.90;;;3.40;;
51438;SDS011;38816;51.142;-0.974;2023-01-26T06:07:16;12.52;;;3.17;;
51438;SDS011;38816;51.142;-0.974;2023-01-26T06:09:42;24.25;;;3.72;;
51438;SDS011;38816;51.142;-0.974;2023-01-26T06:12:18;20.52;;;3.38;;
51438;SDS011;38816;51.142;-0.974;2023-01-26T06:14:45;16.17;;;3.05;;
51438;SDS011;38816;51.142;-0.974;2023-01-26T06:17:11;18.70;;;3.28;;
51438;SDS011;38816;51.142;-0.974;2023-01-26T06:19:37;18.67;;;3.47;;
51438;SDS011;38816;51.142;-0.974;2023-01-26T06:22:03;20.48;;;3.13;;
51438;SDS011;38816;51.142;-0.974;2023-01-26T06:24:32;19.92;;;2.78;;
51438;SDS011;38816;51.142;-0.974;2023-01-26T06:26:58;17.17;;;3.17;;
51438;SDS011;38816;51.142;-0.974;2023-01-26T06:29:23;23.38;;;3.78;;
51438;SDS011;38816;51.142;-0.974;2023-01-26T06:31:49;23.88;;;3.15;;
51438;SDS011;38816;51.142;-0.974;2023-01-26T06:34:14;27.80;;;3.53;;
51438;SDS011;38816;51.142;-0.974;2023-01-26T06:36:40;16.50;;;3.33;;
51438;SDS011;38816;51.142;-0.974;2023-01-26T06:39:05;16.58;;;3.63;;
51438;SDS011;38816;51.142;-0.974;2023-01-26T06:41:31;21.38;;;3.83;;
51438;SDS011;38816;51.142;-0.974;2023-01-26T06:43:57;25.67;;;3.75;;
51438;SDS011;38816;51.142;-0.974;2023-01-26T06:46:22;16.33;;;3.60;;
51438;SDS011;38816;51.142;-0.974;2023-01-26T06:48:48;16.73;;;3.40;;
51438;SDS011;38816;51.142;-0.974;2023-01-26T06:53:42;17.75;;;4.32;;
51438;SDS011;38816;51.142;-0.974;2023-01-26T06:56:11;14.20;;;3.30;;
51438;SDS011;38816;51.142;-0.974;2023-01-26T06:58:36;11.45;;;3.13;;
51438;SDS011;38816;51.142;-0.974;2023-01-26T07:01:02;12.95;;;3.17;;
51438;SDS011;38816;51.142;-0.974;2023-01-26T07:03:28;19.20;;;3.60;;
51438;SDS011;38816;51.142;-0.974;2023-01-26T07:05:53;20.13;;;3.45;;
51438;SDS011;38816;51.142;-0.974;2023-01-26T07:08:19;13.02;;;2.83;;
51438;SDS011;38816;51.142;-0.974;2023-01-26T07:10:44;14.52;;;3.30;;
51438;SDS011;38816;51.142;-0.974;2023-01-26T07:13:09;17.83;;;3.42;;
51438;SDS011;38816;51.142;-0.974;2023-01-26T07:15:35;14.13;;;3.60;;
51438;SDS011;38816;51.142;-0.974;2023-01-26T07:18:00;19.58;;;3.38;;
51438;SDS011;38816;51.142;-0.974;2023-01-26T07:20:26;13.98;;;3.17;;
51438;SDS011;38816;51.142;-0.974;2023-01-26T07:22:52;13.27;;;3.17;;
51438;SDS011;38816;51.142;-0.974;2023-01-26T07:25:17;13.90;;;3.35;;
51438;SDS011;38816;51.142;-0.974;2023-01-26T07:27:43;10.70;;;3.13;;
51438;SDS011;38816;51.142;-0.974;2023-01-26T07:30:09;12.90;;;2.70;;
51438;SDS011;38816;51.142;-0.974;2023-01-26T07:32:38;12.45;;;3.15;;
51438;SDS011;38816;51.142;-0.974;2023-01-26T07:35:04;19.35;;;2.92;;
51438;SDS011;38816;51.142;-0.974;2023-01-26T07:37:30;16.50;;;2.75;;
51438;SDS011;38816;51.142;-0.974;2023-01-26T07:39:55;22.20;;;3.72;;
51438;SDS011;38816;51.142;-0.974;2023-01-26T07:42:21;11.82;;;2.15;;
51438;SDS011;38816;51.142;-0.974;2023-01-26T07:44:47;20.75;;;3.30;;
51438;SDS011;38816;51.142;-0.974;2023-01-26T07:47:12;19.27;;;2.88;;
51438;SDS011;38816;51.142;-0.974;2023-01-26T07:49:41;17.77;;;2.50;;
51438;SDS011;38816;51.142;-0.974;2023-01-26T07:52:06;15.10;;;2.80;;
51438;SDS011;38816;51.142;-0.974;2023-01-26T07:54:33;13.93;;;3.17;;
51438;SDS011;38816;51.142;-0.974;2023-01-26T07:56:58;13.50;;;2.88;;
51438;SDS011;38816;51.142;-0.974;2023-01-26T07:59:24;13.18;;;4.18;;
51438;SDS011;38816;51.142;-0.974;2023-01-26T08:01:50;11.52;;;4.00;;
51438;SDS011;38816;51.142;-0.974;2023-01-26T08:04:16;14.88;;;2.90;;
51438;SDS011;38816;51.142;-0.974;2023-01-26T08:06:42;14.45;;;3.03;;
51438;SDS011;38816;51.142;-0.974;2023-01-26T08:09:07;8.55;;;2.72;;
51438;SDS011;38816;51.142;-0.974;2023-01-26T08:11:33;19.38;;;4.20;;
51438;SDS011;38816;51.142;-0.974;2023-01-26T08:13:59;16.08;;;2.83;;
51438;SDS011;38816;51.142;-0.974;2023-01-26T08:16:24;19.30;;;3.67;;
51438;SDS011;38816;51.142;-0.974;2023-01-26T08:18:50;10.85;;;2.70;;
51438;SDS011;38816;51.142;-0.974;2023-01-26T08:21:15;14.57;;;2.67;;
51438;SDS011;38816;51.142;-0.974;2023-01-26T08:23:46;15.25;;;2.63;;
51438;SDS011;38816;51.142;-0.974;2023-01-26T08:26:12;21.15;;;3.30;;
51438;SDS011;38816;51.142;-0.974;2023-01-26T08:28:38;14.68;;;2.60;;
51438;SDS011;38816;51.142;-0.974;2023-01-26T08:31:11;13.38;;;2.95;;
51438;SDS011;38816;51.142;-0.974;2023-01-26T08:33:45;12.30;;;2.63;;
51438;SDS011;38816;51.142;-0.974;2023-01-26T08:36:14;12.52;;;2.70;;
51438;SDS011;38816;51.142;-0.974;2023-01-26T08:38:41;13.73;;;2.65;;
51438;SDS011;38816;51.142;-0.974;2023-01-26T08:41:07;14.70;;;3.05;;
51438;SDS011;38816;51.142;-0.974;2023-01-26T08:43:33;12.45;;;2.88;;
51438;SDS011;38816;51.142;-0.974;2023-01-26T08:45:59;19.83;;;2.85;;
51438;SDS011;38816;51.142;-0.974;2023-01-26T08:48:25;9.68;;;2.28;;
51438;SDS011;38816;51.142;-0.974;2023-01-26T08:50:54;9.48;;;2.50;;
51438;SDS011;38816;51.142;-0.974;2023-01-26T08:53:21;13.15;;;2.30;;
51438;SDS011;38816;51.142;-0.974;2023-01-26T08:55:46;13.13;;;2.55;;
51438;SDS011;38816;51.142;-0.974;2023-01-26T08:58:12;11.90;;;2.28;;
51438;SDS011;38816;51.142;-0.974;2023-01-26T09:00:37;19.75;;;2.67;;
51438;SDS011;38816;51.142;-0.974;2023-01-26T09:03:03;7.45;;;1.98;;
51438;SDS011;38816;51.142;-0.974;2023-01-26T09:05:30;13.27;;;2.17;;
51438;SDS011;38816;51.142;-0.974;2023-01-26T09:07:57;8.70;;;2.72;;
51438;SDS011;38816;51.142;-0.974;2023-01-26T09:10:23;8.82;;;3.60;;
51438;SDS011;38816;51.142;-0.974;2023-01-26T09:12:48;13.77;;;5.45;;
51438;SDS011;38816;51.142;-0.974;2023-01-26T09:15:14;12.75;;;4.10;;
51438;SDS011;38816;51.142;-0.974;2023-01-26T09:17:39;12.23;;;3.42;;
51438;SDS011;38816;51.142;-0.974;2023-01-26T09:20:06;11.38;;;2.55;;
51438;SDS011;38816;51.142;-0.974;2023-01-26T09:22:33;12.68;;;2.45;;
51438;SDS011;38816;51.142;-0.974;2023-01-26T09:24:59;6.40;;;2.30;;
51438;SDS011;38816;51.142;-0.974;2023-01-26T09:27:24;8.65;;;1.77;;
51438;SDS011;38816;51.142;-0.974;2023-01-26T09:29:50;15.65;;;2.42;;
51438;SDS011;38816;51.142;-0.974;2023-01-26T09:32:16;10.73;;;2.10;;
51438;SDS011;38816;51.142;-0.974;2023-01-26T09:34:42;11.30;;;2.20;;
51438;SDS011;38816;51.142;-0.974;2023-01-26T09:37:07;17.55;;;2.60;;
51438;SDS011;38816;51.142;-0.974;2023-01-26T09:39:33;14.30;;;2.13;;
51438;SDS011;38816;51.142;-0.974;2023-01-26T09:42:05;12.00;;;2.53;;
51438;SDS011;38816;51.142;-0.974;2023-01-26T09:48:21;9.48;;;2.00;;
51438;SDS011;38816;51.142;-0.974;2023-01-26T09:50:34;13.82;;;2.17;;
51438;SDS011;38816;51.142;-0.974;2023-01-26T09:53:06;6.75;;;2.22;;
51438;SDS011;38816;51.142;-0.974;2023-01-26T09:55:35;11.38;;;1.85;;
51438;SDS011;38816;51.142;-0.974;2023-01-26T09:58:02;7.78;;;2.17;;
51438;SDS011;38816;51.142;-0.974;2023-01-26T10:00:37;11.57;;;2.35;;
51438;SDS011;38816;51.142;-0.974;2023-01-26T10:06:00;10.18;;;2.33;;
51438;SDS011;38816;51.142;-0.974;2023-01-26T10:08:45;4.95;;;1.90;;
51438;SDS011;38816;51.142;-0.974;2023-01-26T10:11:20;12.40;;;2.80;;
51438;SDS011;38816;51.142;-0.974;2023-01-26T10:13:56;9.27;;;2.30;;
51438;SDS011;38816;51.142;-0.974;2023-01-26T10:16:32;7.70;;;2.00;;
51438;SDS011;38816;51.142;-0.974;2023-01-26T10:19:01;7.10;;;2.20;;
51438;SDS011;38816;51.142;-0.974;2023-01-26T10:21:32;8.23;;;2.38;;
51438;SDS011;38816;51.142;-0.974;2023-01-26T10:24:04;11.00;;;2.05;;
51438;SDS011;38816;51.142;-0.974;2023-01-26T10:26:30;14.43;;;2.40;;
51438;SDS011;38816;51.142;-0.974;2023-01-26T10:28:57;9.43;;;2.70;;
51438;SDS011;38816;51.142;-0.974;2023-01-26T10:31:25;9.30;;;2.70;;
51438;SDS011;38816;51.142;-0.974;2023-01-26T10:33:54;10.70;;;2.72;;
51438;SDS011;38816;51.142;-0.974;2023-01-26T10:36:22;10.13;;;2.35;;
51438;SDS011;38816;51.142;-0.974;2023-01-26T10:38:48;9.40;;;2.65;;
51438;SDS011;38816;51.142;-0.974;2023-01-26T10:46:28;11.73;;;2.75;;
51438;SDS011;38816;51.142;-0.974;2023-01-26T10:49:01;6.65;;;2.67;;
51438;SDS011;38816;51.142;-0.974;2023-01-26T10:51:39;8.02;;;2.72;;
51438;SDS011;38816;51.142;-0.974;2023-01-26T10:54:20;13.25;;;2.88;;
51438;SDS011;38816;51.142;-0.974;2023-01-26T10:56:47;11.50;;;2.78;;
51438;SDS011;38816;51.142;-0.974;2023-01-26T10:59:33;9.77;;;2.97;;
51438;SDS011;38816;51.142;-0.974;2023-01-26T11:04:35;19.85;;;3.50;;
51438;SDS011;38816;51.142;-0.974;2023-01-26T11:09:50;10.50;;;2.40;;
51438;SDS011;38816;51.142;-0.974;2023-01-26T11:12:17;10.40;;;3.22;;
51438;SDS011;38816;51.142;-0.974;2023-01-26T11:15:05;15.02;;;2.78;;
51438;SDS011;38816;51.142;-0.974;2023-01-26T11:20:56;10.82;;;2.95;;
51438;SDS011;38816;51.142;-0.974;2023-01-26T11:26:15;12.07;;;3.10;;
51438;SDS011;38816;51.142;-0.974;2023-01-26T11:31:25;16.55;;;3.25;;
51438;SDS011;38816;51.142;-0.974;2023-01-26T11:40:20;11.30;;;3.20;;
51438;SDS011;38816;51.142;-0.974;2023-01-26T11:42:56;15.18;;;3.28;;
51438;SDS011;38816;51.142;-0.974;2023-01-26T11:45:35;11.13;;;3.90;;
51438;SDS011;38816;51.142;-0.974;2023-01-26T11:56:55;21.70;;;5.15;;
51438;SDS011;38816;51.142;-0.974;2023-01-26T11:59:41;9.52;;;3.55;;
51438;SDS011;38816;51.142;-0.974;2023-01-26T12:02:23;15.20;;;3.67;;
51438;SDS011;38816;51.142;-0.974;2023-01-26T12:04:55;11.15;;;3.70;;
51438;SDS011;38816;51.142;-0.974;2023-01-26T12:07:26;18.92;;;4.10;;
51438;SDS011;38816;51.142;-0.974;2023-01-26T12:09:52;15.20;;;5.50;;
51438;SDS011;38816;51.142;-0.974;2023-01-26T12:12:21;14.48;;;3.95;;
51438;SDS011;38816;51.142;-0.974;2023-01-26T12:31:17;10.00;;;3.53;;
51438;SDS011;38816;51.142;-0.974;2023-01-26T12:33:42;14.02;;;3.90;;
51438;SDS011;38816;51.142;-0.974;2023-01-26T12:46:41;15.48;;;4.60;;
51438;SDS011;38816;51.142;-0.974;2023-01-26T12:49:25;20.88;;;4.03;;
51438;SDS011;38816;51.142;-0.974;2023-01-26T12:52:01;13.77;;;3.85;;
51438;SDS011;38816;51.142;-0.974;2023-01-26T12:57:00;19.33;;;4.72;;
51438;SDS011;38816;51.142;-0.974;2023-01-26T12:59:33;14.52;;;5.03;;
51438;SDS011;38816;51.142;-0.974;2023-01-26T13:04:39;19.50;;;4.80;;
51438;SDS011;38816;51.142;-0.974;2023-01-26T13:07:25;14.07;;;4.20;;
51438;SDS011;38816;51.142;-0.974;2023-01-26T13:15:27;16.80;;;4.47;;
51438;SDS011;38816;51.142;-0.974;2023-01-26T13:17:57;12.80;;;4.15;;
51438;SDS011;38816;51.142;-0.974;2023-01-26T13:20:26;13.93;;;4.03;;
51438;SDS011;38816;51.142;-0.974;2023-01-26T13:26:13;14.57;;;3.45;;
51438;SDS011;38816;51.142;-0.974;2023-01-26T13:28:40;18.30;;;3.42;;
51438;SDS011;38816;51.142;-0.974;2023-01-26T13:31:06;15.63;;;4.32;;
51438;SDS011;38816;51.142;-0.974;2023-01-26T13:33:34;14.40;;;3.72;;
51438;SDS011;38816;51.142;-0.974;2023-01-26T13:36:01;14.55;;;3.60;;
51438;SDS011;38816;51.142;-0.974;2023-01-26T13:38:34;17.70;;;4.32;;
51438;SDS011;38816;51.142;-0.974;2023-01-26T13:41:06;16.63;;;4.57;;
51438;SDS011;38816;51.142;-0.974;2023-01-26T13:43:50;17.90;;;4.68;;
51438;SDS011;38816;51.142;-0.974;2023-01-26T13:48:55;13.77;;;3.67;;
51438;SDS011;38816;51.142;-0.974;2023-01-26T13:51:22;14.30;;;3.65;;
51438;SDS011;38816;51.142;-0.974;2023-01-26T13:56:40;13.98;;;3.92;;
51438;SDS011;38816;51.142;-0.974;2023-01-26T13:59:22;23.13;;;4.78;;
51438;SDS011;38816;51.142;-0.974;2023-01-26T14:01:49;14.85;;;4.43;;
51438;SDS011;38816;51.142;-0.974;2023-01-26T14:04:23;21.55;;;5.93;;
51438;SDS011;38816;51.142;-0.974;2023-01-26T14:06:51;15.95;;;3.95;;
51438;SDS011;38816;51.142;-0.974;2023-01-26T14:09:18;17.13;;;4.65;;
51438;SDS011;38816;51.142;-0.974;2023-01-26T14:11:45;14.88;;;4.35;;
51438;SDS011;38816;51.142;-0.974;2023-01-26T14:14:22;15.65;;;4.10;;
51438;SDS011;38816;51.142;-0.974;2023-01-26T14:16:49;21.80;;;4.38;;
51438;SDS011;38816;51.142;-0.974;2023-01-26T14:19:16;16.60;;;4.70;;
51438;SDS011;38816;51.142;-0.974;2023-01-26T14:21:46;24.25;;;5.65;;
51438;SDS011;38816;51.142;-0.974;2023-01-26T14:24:16;13.40;;;4.65;;
51438;SDS011;38816;51.142;-0.974;2023-01-26T14:26:44;17.48;;;4.85;;
51438;SDS011;38816;51.142;-0.974;2023-01-26T14:29:17;17.80;;;4.32;;
51438;SDS011;38816;51.142;-0.974;2023-01-26T14:31:47;18.23;;;4.65;;
51438;SDS011;38816;51.142;-0.974;2023-01-26T14:34:17;19.95;;;5.00;;
51438;SDS011;38816;51.142;-0.974;2023-01-26T14:36:47;21.73;;;4.45;;
51438;SDS011;38816;51.142;-0.974;2023-01-26T14:39:17;20.08;;;3.92;;
51438;SDS011;38816;51.142;-0.974;2023-01-26T14:41:44;18.55;;;4.50;;
51438;SDS011;38816;51.142;-0.974;2023-01-26T14:44:10;16.90;;;4.35;;
51438;SDS011;38816;51.142;-0.974;2023-01-26T14:46:43;15.88;;;3.80;;
51438;SDS011;38816;51.142;-0.974;2023-01-26T14:49:17;16.90;;;3.75;;
51438;SDS011;38816;51.142;-0.974;2023-01-26T14:51:55;20.75;;;3.22;;
51438;SDS011;38816;51.142;-0.974;2023-01-26T14:54:32;18.58;;;2.88;;
51438;SDS011;38816;51.142;-0.974;2023-01-26T14:57:03;16.30;;;2.80;;
51438;SDS011;38816;51.142;-0.974;2023-01-26T14:59:33;18.05;;;2.85;;
51438;SDS011;38816;51.142;-0.974;2023-01-26T15:02:16;15.98;;;3.20;;
51438;SDS011;38816;51.142;-0.974;2023-01-26T15:04:59;18.85;;;2.92;;
51438;SDS011;38816;51.142;-0.974;2023-01-26T15:12:59;15.32;;;3.03;;
51438;SDS011;38816;51.142;-0.974;2023-01-26T15:15:37;17.05;;;3.10;;
51438;SDS011;38816;51.142;-0.974;2023-01-26T15:23:32;16.67;;;3.60;;
51438;SDS011;38816;51.142;-0.974;2023-01-26T15:26:11;13.82;;;3.28;;
51438;SDS011;38816;51.142;-0.974;2023-01-26T15:28:48;18.75;;;4.00;;
51438;SDS011;38816;51.142;-0.974;2023-01-26T15:31:37;16.25;;;3.00;;
51438;SDS011;38816;51.142;-0.974;2023-01-26T15:34:03;23.63;;;3.63;;
51438;SDS011;38816;51.142;-0.974;2023-01-26T15:36:31;11.73;;;2.97;;
51438;SDS011;38816;51.142;-0.974;2023-01-26T15:38:58;16.13;;;4.15;;
51438;SDS011;38816;51.142;-0.974;2023-01-26T15:41:26;22.48;;;3.60;;
51438;SDS011;38816;51.142;-0.974;2023-01-26T15:43:53;20.05;;;3.75;;
51438;SDS011;38816;51.142;-0.974;2023-01-26T15:46:18;13.35;;;3.60;;
51438;SDS011;38816;51.142;-0.974;2023-01-26T15:48:43;18.35;;;3.30;;
51438;SDS011;38816;51.142;-0.974;2023-01-26T15:51:10;11.85;;;3.65;;
51438;SDS011;38816;51.142;-0.974;2023-01-26T15:53:37;24.55;;;3.83;;
51438;SDS011;38816;51.142;-0.974;2023-01-26T15:56:02;16.23;;;4.07;;
51438;SDS011;38816;51.142;-0.974;2023-01-26T15:58:28;17.02;;;3.28;;
51438;SDS011;38816;51.142;-0.974;2023-01-26T16:00:55;14.38;;;3.33;;
51438;SDS011;38816;51.142;-0.974;2023-01-26T16:03:21;14.55;;;3.88;;
51438;SDS011;38816;51.142;-0.974;2023-01-26T16:05:47;22.00;;;3.67;;
51438;SDS011;38816;51.142;-0.974;2023-01-26T16:08:13;15.90;;;3.83;;
51438;SDS011;38816;51.142;-0.974;2023-01-26T16:10:40;10.55;;;3.08;;
51438;SDS011;38816;51.142;-0.974;2023-01-26T16:13:13;16.98;;;3.15;;
51438;SDS011;38816;51.142;-0.974;2023-01-26T16:15:52;16.00;;;3.97;;
51438;SDS011;38816;51.142;-0.974;2023-01-26T16:18:19;20.70;;;3.10;;
51438;SDS011;38816;51.142;-0.974;2023-01-26T16:20:45;20.58;;;3.80;;
51438;SDS011;38816;51.142;-0.974;2023-01-26T16:23:22;16.05;;;2.92;;
51438;SDS011;38816;51.142;-0.974;2023-01-26T16:25:49;16.35;;;3.10;;
51438;SDS011;38816;51.142;-0.974;2023-01-26T16:28:15;21.00;;;3.05;;
51438;SDS011;38816;51.142;-0.974;2023-01-26T16:30:41;18.02;;;3.30;;
51438;SDS011;38816;51.142;-0.974;2023-01-26T16:33:12;15.98;;;3.00;;